Time,TemperatureF,DewpointF,PressureIn,WindDirection,WindDirectionDegrees,WindSpeedMPH,WindSpeedGustMPH,Humidity,HourlyPrecipIn,Conditions,Clouds,dailyrainin,SoftwareType,DateUTC
2013-06-14 00:00:00,76.4,70.5,29.89,NE,44,0.0,0.0,82,0.00,,---,0.00,VWS V14.00,2013-06-14 05:00:00,
2013-06-14 00:01:00,76.5,70.6,29.89,NE,44,0.0,0.0,82,0.00,,---,0.00,VWS V14.00,2013-06-14 05:01:00,
2013-06-14 00:05:00,76.2,70.3,29.88,NE,44,0.0,0.0,82,0.00,,---,0.00,VWS V14.00,2013-06-14 05:05:00,
2013-06-14 00:06:00,76.2,70.3,29.88,NE,44,0.0,0.0,82,0.00,,---,0.00,VWS V14.00,2013-06-14 05:06:00,
2013-06-14 00:10:00,75.9,70.0,29.88,NE,44,0.0,0.0,82,0.00,,---,0.00,VWS V14.00,2013-06-14 05:10:00,
2013-06-14 00:11:00,76.0,70.1,29.88,NE,44,0.0,0.0,82,0.00,,---,0.00,VWS V14.00,2013-06-14 05:11:00,
2013-06-14 00:15:00,75.6,69.7,29.88,NE,44,0.0,0.0,82,0.00,,---,0.00,VWS V14.00,2013-06-14 05:15:00,
2013-06-14 00:16:00,75.7,69.8,29.88,NE,44,0.0,0.0,82,0.00,,---,0.00,VWS V14.00,2013-06-14 05:16:00,
2013-06-14 00:20:00,75.4,69.9,29.88,NE,44,0.0,0.0,83,0.00,,---,0.00,VWS V14.00,2013-06-14 05:20:00,
2013-06-14 00:21:00,75.5,70.0,29.88,NE,44,0.0,0.0,83,0.00,,---,0.00,VWS V14.00,2013-06-14 05:21:00,
2013-06-14 00:25:00,75.3,69.8,29.88,NE,44,0.0,0.0,83,0.00,,---,0.00,VWS V14.00,2013-06-14 05:25:00,
2013-06-14 00:26:00,75.3,69.8,29.88,NE,44,0.0,0.0,83,0.00,,---,0.00,VWS V14.00,2013-06-14 05:26:00,
2013-06-14 00:30:00,75.1,69.6,29.88,NE,44,0.0,0.0,83,0.00,,---,0.00,VWS V14.00,2013-06-14 05:30:00,
2013-06-14 00:31:00,75.2,69.7,29.88,NE,44,0.0,0.0,83,0.00,,---,0.00,VWS V14.00,2013-06-14 05:31:00,
2013-06-14 00:35:00,74.9,69.4,29.88,NE,44,0.0,0.0,83,0.00,,---,0.00,VWS V14.00,2013-06-14 05:35:00,
2013-06-14 00:36:00,75.0,69.5,29.89,NE,44,0.0,0.0,83,0.00,,---,0.00,VWS V14.00,2013-06-14 05:36:00,
2013-06-14 00:40:00,74.9,69.4,29.89,NE,44,0.0,0.0,83,0.00,,---,0.00,VWS V14.00,2013-06-14 05:40:00,
2013-06-14 00:41:00,74.9,69.4,29.89,NE,44,0.0,0.0,83,0.00,,---,0.00,VWS V14.00,2013-06-14 05:41:00,
2013-06-14 00:45:00,74.8,69.3,29.89,NE,44,0.0,0.0,83,0.00,,---,0.00,VWS V14.00,2013-06-14 05:45:00,
2013-06-14 00:46:00,74.8,69.3,29.89,NE,44,0.0,0.0,83,0.00,,---,0.00,VWS V14.00,2013-06-14 05:46:00,
2013-06-14 00:50:00,74.9,69.4,29.89,NE,44,0.0,0.0,83,0.00,,---,0.00,VWS V14.00,2013-06-14 05:50:00,
2013-06-14 00:51:00,74.9,69.4,29.89,NE,44,0.0,0.0,83,0.00,,---,0.00,VWS V14.00,2013-06-14 05:51:00,
2013-06-14 00:55:00,74.9,69.7,29.89,NE,44,0.0,0.0,84,0.00,,---,0.00,VWS V14.00,2013-06-14 05:55:00,
2013-06-14 00:56:00,74.9,69.4,29.89,NE,44,0.0,0.0,83,0.00,,---,0.00,VWS V14.00,2013-06-14 05:56:00,
2013-06-14 01:00:00,75.0,69.8,29.89,NE,44,0.0,0.0,84,0.00,,---,0.00,VWS V14.00,2013-06-14 06:00:00,
2013-06-14 01:01:00,75.0,69.8,29.89,NE,44,0.0,0.0,84,0.00,,---,0.00,VWS V14.00,2013-06-14 06:01:00,
2013-06-14 01:05:00,75.1,70.3,29.89,NE,44,0.0,0.0,85,0.00,,---,0.00,VWS V14.00,2013-06-14 06:05:00,
2013-06-14 01:06:00,75.1,70.3,29.89,NE,44,0.0,0.0,85,0.00,,---,0.00,VWS V14.00,2013-06-14 06:06:00,
2013-06-14 01:10:00,75.0,70.2,29.89,NE,44,0.0,0.0,85,0.00,,---,0.00,VWS V14.00,2013-06-14 06:10:00,
2013-06-14 01:11:00,75.0,70.2,29.89,NE,44,0.0,0.0,85,0.00,,---,0.00,VWS V14.00,2013-06-14 06:11:00,
2013-06-14 01:15:00,74.9,70.1,29.89,NE,44,0.0,0.0,85,0.00,,---,0.00,VWS V14.00,2013-06-14 06:15:00,
2013-06-14 01:16:00,75.0,70.2,29.89,NE,44,0.0,0.0,85,0.00,,---,0.00,VWS V14.00,2013-06-14 06:16:00,
2013-06-14 01:20:00,74.9,70.1,29.88,NE,44,0.0,0.0,85,0.00,,---,0.00,VWS V14.00,2013-06-14 06:20:00,
2013-06-14 01:21:00,74.9,70.1,29.89,NE,44,0.0,0.0,85,0.00,,---,0.00,VWS V14.00,2013-06-14 06:21:00,
2013-06-14 01:25:00,74.8,70.0,29.88,NE,44,0.0,0.0,85,0.00,,---,0.00,VWS V14.00,2013-06-14 06:25:00,
2013-06-14 01:26:00,74.8,70.0,29.88,NE,44,0.0,0.0,85,0.00,,---,0.00,VWS V14.00,2013-06-14 06:26:00,
2013-06-14 01:30:00,74.8,70.0,29.88,NE,44,0.0,0.0,85,0.00,,---,0.00,VWS V14.00,2013-06-14 06:30:00,
2013-06-14 01:31:00,74.8,70.0,29.88,NE,44,0.0,0.0,85,0.00,,---,0.00,VWS V14.00,2013-06-14 06:31:00,
2013-06-14 01:35:00,74.6,69.8,29.89,NE,44,0.0,0.0,85,0.00,,---,0.00,VWS V14.00,2013-06-14 06:35:00,
2013-06-14 01:36:00,74.6,69.8,29.88,NE,44,0.0,0.0,85,0.00,,---,0.00,VWS V14.00,2013-06-14 06:36:00,
2013-06-14 01:40:00,74.5,70.0,29.89,NE,44,0.0,0.0,86,0.00,,---,0.00,VWS V14.00,2013-06-14 06:40:00,
2013-06-14 01:41:00,74.5,70.0,29.88,NE,44,0.0,0.0,86,0.00,,---,0.00,VWS V14.00,2013-06-14 06:41:00,
2013-06-14 01:45:00,74.4,69.9,29.88,NE,44,0.0,0.0,86,0.00,,---,0.00,VWS V14.00,2013-06-14 06:45:00,
2013-06-14 01:46:00,74.4,69.9,29.89,NE,44,0.0,0.0,86,0.00,,---,0.00,VWS V14.00,2013-06-14 06:46:00,
2013-06-14 01:50:00,74.3,69.8,29.89,NE,44,0.0,0.0,86,0.00,,---,0.00,VWS V14.00,2013-06-14 06:50:00,
2013-06-14 01:51:00,74.4,69.9,29.89,NE,44,0.0,0.0,86,0.00,,---,0.00,VWS V14.00,2013-06-14 06:51:00,
2013-06-14 01:55:00,74.3,69.8,29.88,NE,44,0.0,0.0,86,0.00,,---,0.00,VWS V14.00,2013-06-14 06:55:00,
2013-06-14 01:56:00,74.3,69.8,29.89,NE,44,0.0,0.0,86,0.00,,---,0.00,VWS V14.00,2013-06-14 06:56:00,
2013-06-14 02:00:00,74.2,69.8,29.88,NE,44,0.0,0.0,86,0.00,,---,0.00,VWS V14.00,2013-06-14 07:00:00,
2013-06-14 02:01:00,74.2,69.8,29.88,NE,44,0.0,0.0,86,0.00,,---,0.00,VWS V14.00,2013-06-14 07:01:00,
2013-06-14 02:05:00,74.1,69.7,29.88,NE,44,0.0,0.0,86,0.00,,---,0.00,VWS V14.00,2013-06-14 07:05:00,
2013-06-14 02:06:00,74.2,69.8,29.88,NE,44,0.0,0.0,86,0.00,,---,0.00,VWS V14.00,2013-06-14 07:06:00,
2013-06-14 02:10:00,74.0,69.6,29.88,NE,44,0.0,0.0,86,0.00,,---,0.00,VWS V14.00,2013-06-14 07:10:00,
2013-06-14 02:11:00,74.0,69.6,29.88,NE,44,0.0,0.0,86,0.00,,---,0.00,VWS V14.00,2013-06-14 07:11:00,
2013-06-14 02:15:00,73.9,69.8,29.88,NE,44,0.0,0.0,87,0.00,,---,0.00,VWS V14.00,2013-06-14 07:15:00,
2013-06-14 02:16:00,73.9,69.8,29.88,NE,44,0.0,0.0,87,0.00,,---,0.00,VWS V14.00,2013-06-14 07:16:00,
2013-06-14 02:20:00,73.7,69.6,29.88,NE,44,0.0,0.0,87,0.00,,---,0.00,VWS V14.00,2013-06-14 07:20:00,
2013-06-14 02:21:00,73.7,69.6,29.88,NE,44,0.0,0.0,87,0.00,,---,0.00,VWS V14.00,2013-06-14 07:21:00,
2013-06-14 02:25:00,73.5,69.7,29.88,NE,44,0.0,0.0,88,0.00,,---,0.00,VWS V14.00,2013-06-14 07:25:00,
2013-06-14 02:26:00,73.5,69.7,29.87,NE,44,0.0,0.0,88,0.00,,---,0.00,VWS V14.00,2013-06-14 07:26:00,
2013-06-14 02:30:00,73.2,69.4,29.88,NE,44,0.0,0.0,88,0.00,,---,0.00,VWS V14.00,2013-06-14 07:30:00,
2013-06-14 02:31:00,73.3,69.5,29.88,NE,44,0.0,0.0,88,0.00,,---,0.00,VWS V14.00,2013-06-14 07:31:00,
2013-06-14 02:35:00,73.0,69.2,29.88,NE,44,0.0,0.0,88,0.00,,---,0.00,VWS V14.00,2013-06-14 07:35:00,
2013-06-14 02:36:00,73.0,69.2,29.87,NE,44,0.0,0.0,88,0.00,,---,0.00,VWS V14.00,2013-06-14 07:36:00,
2013-06-14 02:40:00,72.8,69.0,29.87,NE,44,0.0,0.0,88,0.00,,---,0.00,VWS V14.00,2013-06-14 07:40:00,
2013-06-14 02:41:00,72.8,69.0,29.87,NE,44,0.0,0.0,88,0.00,,---,0.00,VWS V14.00,2013-06-14 07:41:00,
2013-06-14 02:45:00,72.6,69.2,29.87,NE,44,0.0,0.0,89,0.00,,---,0.00,VWS V14.00,2013-06-14 07:45:00,
2013-06-14 02:46:00,72.6,68.8,29.87,NE,44,0.0,0.0,88,0.00,,---,0.00,VWS V14.00,2013-06-14 07:46:00,
2013-06-14 02:50:00,72.4,68.7,29.87,NE,44,0.0,0.0,88,0.00,,---,0.00,VWS V14.00,2013-06-14 07:50:00,
2013-06-14 02:51:00,72.4,68.7,29.87,NE,44,0.0,0.0,88,0.00,,---,0.00,VWS V14.00,2013-06-14 07:51:00,
2013-06-14 02:55:00,72.3,68.9,29.86,NE,44,0.0,0.0,89,0.00,,---,0.00,VWS V14.00,2013-06-14 07:55:00,
2013-06-14 02:56:00,72.3,68.9,29.87,NE,44,0.0,0.0,89,0.00,,---,0.00,VWS V14.00,2013-06-14 07:56:00,
2013-06-14 03:00:00,72.3,68.9,29.86,NE,44,0.0,0.0,89,0.00,,---,0.00,VWS V14.00,2013-06-14 08:00:00,
2013-06-14 03:01:00,72.3,68.9,29.86,NE,44,0.0,0.0,89,0.00,,---,0.00,VWS V14.00,2013-06-14 08:01:00,
2013-06-14 03:05:00,72.3,69.2,29.86,NE,44,0.0,0.0,90,0.00,,---,0.00,VWS V14.00,2013-06-14 08:05:00,
2013-06-14 03:06:00,72.3,69.2,29.86,NE,44,0.0,0.0,90,0.00,,---,0.00,VWS V14.00,2013-06-14 08:06:00,
2013-06-14 03:10:00,72.1,69.0,29.86,NE,44,0.0,0.0,90,0.00,,---,0.00,VWS V14.00,2013-06-14 08:10:00,
2013-06-14 03:11:00,72.2,68.8,29.86,NE,44,0.0,0.0,89,0.00,,---,0.00,VWS V14.00,2013-06-14 08:11:00,
2013-06-14 03:15:00,72.0,68.9,29.86,NE,44,0.0,0.0,90,0.00,,---,0.00,VWS V14.00,2013-06-14 08:15:00,
2013-06-14 03:16:00,72.0,68.9,29.86,NE,44,0.0,0.0,90,0.00,,---,0.00,VWS V14.00,2013-06-14 08:16:00,
2013-06-14 03:20:00,71.9,68.8,29.86,NE,44,0.0,0.0,90,0.00,,---,0.00,VWS V14.00,2013-06-14 08:20:00,
2013-06-14 03:21:00,72.0,68.9,29.86,NE,44,0.0,0.0,90,0.00,,---,0.00,VWS V14.00,2013-06-14 08:21:00,
2013-06-14 03:25:00,71.9,68.8,29.86,NE,44,0.0,0.0,90,0.00,,---,0.00,VWS V14.00,2013-06-14 08:25:00,
2013-06-14 03:26:00,71.9,68.8,29.86,NE,44,0.0,0.0,90,0.00,,---,0.00,VWS V14.00,2013-06-14 08:26:00,
2013-06-14 03:30:00,71.9,68.8,29.86,NE,44,0.0,0.0,90,0.00,,---,0.00,VWS V14.00,2013-06-14 08:30:00,
2013-06-14 03:31:00,71.9,68.8,29.86,NE,44,0.0,0.0,90,0.00,,---,0.00,VWS V14.00,2013-06-14 08:31:00,
2013-06-14 03:35:00,71.9,68.8,29.85,NE,44,0.0,0.0,90,0.00,,---,0.00,VWS V14.00,2013-06-14 08:35:00,
2013-06-14 03:36:00,71.9,68.8,29.86,NE,44,0.0,0.0,90,0.00,,---,0.00,VWS V14.00,2013-06-14 08:36:00,
2013-06-14 03:40:00,71.8,68.7,29.85,NE,44,0.0,0.0,90,0.00,,---,0.00,VWS V14.00,2013-06-14 08:40:00,
2013-06-14 03:41:00,71.8,68.7,29.86,NE,44,0.0,0.0,90,0.00,,---,0.00,VWS V14.00,2013-06-14 08:41:00,
2013-06-14 03:45:00,71.8,68.7,29.85,NE,44,0.0,0.0,90,0.00,,---,0.00,VWS V14.00,2013-06-14 08:45:00,
2013-06-14 03:46:00,71.8,68.7,29.85,NE,44,0.0,0.0,90,0.00,,---,0.00,VWS V14.00,2013-06-14 08:46:00,
2013-06-14 03:50:00,71.7,68.6,29.86,NE,44,0.0,0.0,90,0.00,,---,0.00,VWS V14.00,2013-06-14 08:50:00,
2013-06-14 03:51:00,71.7,68.6,29.85,NE,44,0.0,0.0,90,0.00,,---,0.00,VWS V14.00,2013-06-14 08:51:00,
2013-06-14 03:55:00,71.6,68.5,29.86,NE,44,0.0,0.0,90,0.00,,---,0.00,VWS V14.00,2013-06-14 08:55:00,
2013-06-14 03:56:00,71.6,68.5,29.86,NE,44,0.0,0.0,90,0.00,,---,0.00,VWS V14.00,2013-06-14 08:56:00,
2013-06-14 04:00:00,71.6,68.5,29.86,NE,44,0.0,0.0,90,0.00,,---,0.00,VWS V14.00,2013-06-14 09:00:00,
2013-06-14 04:01:00,71.6,68.5,29.86,NE,44,0.0,0.0,90,0.00,,---,0.00,VWS V14.00,2013-06-14 09:01:00,
2013-06-14 04:05:00,71.5,68.4,29.86,NE,44,0.0,0.0,90,0.00,,---,0.00,VWS V14.00,2013-06-14 09:05:00,
2013-06-14 04:06:00,71.5,68.4,29.86,NE,44,0.0,0.0,90,0.00,,---,0.00,VWS V14.00,2013-06-14 09:06:00,
2013-06-14 04:10:00,71.4,68.3,29.86,NE,44,0.0,0.0,90,0.00,,---,0.00,VWS V14.00,2013-06-14 09:10:00,
2013-06-14 04:11:00,71.4,68.3,29.86,NE,44,0.0,0.0,90,0.00,,---,0.00,VWS V14.00,2013-06-14 09:11:00,
2013-06-14 04:15:00,71.3,68.2,29.85,NE,44,0.0,0.0,90,0.00,,---,0.00,VWS V14.00,2013-06-14 09:15:00,
2013-06-14 04:16:00,71.3,68.2,29.86,NE,44,0.0,0.0,90,0.00,,---,0.00,VWS V14.00,2013-06-14 09:16:00,
2013-06-14 04:20:00,71.3,68.2,29.86,NE,44,0.0,0.0,90,0.00,,---,0.00,VWS V14.00,2013-06-14 09:20:00,
2013-06-14 04:21:00,71.3,68.2,29.86,NE,44,0.0,0.0,90,0.00,,---,0.00,VWS V14.00,2013-06-14 09:21:00,
2013-06-14 04:25:00,71.3,68.2,29.86,NE,44,0.0,0.0,90,0.00,,---,0.00,VWS V14.00,2013-06-14 09:25:00,
2013-06-14 04:26:00,71.3,68.2,29.86,NE,44,0.0,0.0,90,0.00,,---,0.00,VWS V14.00,2013-06-14 09:26:00,
2013-06-14 04:30:00,71.3,68.2,29.86,NE,44,0.0,0.0,90,0.00,,---,0.00,VWS V14.00,2013-06-14 09:30:00,
2013-06-14 04:31:00,71.3,68.2,29.86,NE,44,0.0,0.0,90,0.00,,---,0.00,VWS V14.00,2013-06-14 09:31:00,
2013-06-14 04:35:00,71.2,68.1,29.86,NE,44,0.0,0.0,90,0.00,,---,0.00,VWS V14.00,2013-06-14 09:35:00,
2013-06-14 04:36:00,71.2,68.1,29.86,NE,44,0.0,0.0,90,0.00,,---,0.00,VWS V14.00,2013-06-14 09:36:00,
2013-06-14 04:40:00,71.1,68.0,29.86,NE,44,0.0,0.0,90,0.00,,---,0.00,VWS V14.00,2013-06-14 09:40:00,
2013-06-14 04:41:00,71.2,68.1,29.86,NE,44,0.0,0.0,90,0.00,,---,0.00,VWS V14.00,2013-06-14 09:41:00,
2013-06-14 04:45:00,71.1,68.0,29.86,NE,44,0.0,0.0,90,0.00,,---,0.00,VWS V14.00,2013-06-14 09:45:00,
2013-06-14 04:46:00,71.1,68.0,29.86,NE,44,0.0,0.0,90,0.00,,---,0.00,VWS V14.00,2013-06-14 09:46:00,
2013-06-14 04:50:00,71.1,68.0,29.86,NE,44,0.0,0.0,90,0.00,,---,0.00,VWS V14.00,2013-06-14 09:50:00,
2013-06-14 04:51:00,71.1,68.0,29.86,NE,44,0.0,0.0,90,0.00,,---,0.00,VWS V14.00,2013-06-14 09:51:00,
2013-06-14 04:55:00,71.0,67.9,29.86,NE,44,0.0,0.0,90,0.00,,---,0.00,VWS V14.00,2013-06-14 09:55:00,
2013-06-14 04:56:00,71.0,67.9,29.86,NE,44,0.0,0.0,90,0.00,,---,0.00,VWS V14.00,2013-06-14 09:56:00,
2013-06-14 05:00:00,71.0,67.9,29.86,NE,44,0.0,0.0,90,0.00,,---,0.00,VWS V14.00,2013-06-14 10:00:00,
2013-06-14 05:01:00,71.0,67.9,29.86,NE,44,0.0,0.0,90,0.00,,---,0.00,VWS V14.00,2013-06-14 10:01:00,
2013-06-14 05:05:00,70.9,67.8,29.86,NE,44,0.0,0.0,90,0.00,,---,0.00,VWS V14.00,2013-06-14 10:05:00,
2013-06-14 05:06:00,70.9,67.8,29.86,NE,44,0.0,0.0,90,0.00,,---,0.00,VWS V14.00,2013-06-14 10:06:00,
2013-06-14 05:10:00,70.9,67.8,29.86,NE,44,0.0,0.0,90,0.00,,---,0.00,VWS V14.00,2013-06-14 10:10:00,
2013-06-14 05:11:00,70.9,67.8,29.87,NE,44,0.0,0.0,90,0.00,,---,0.00,VWS V14.00,2013-06-14 10:11:00,
2013-06-14 05:15:00,70.8,67.7,29.87,NE,44,0.0,0.0,90,0.00,,---,0.00,VWS V14.00,2013-06-14 10:15:00,
2013-06-14 05:16:00,70.8,67.7,29.87,NE,44,0.0,0.0,90,0.00,,---,0.00,VWS V14.00,2013-06-14 10:16:00,
2013-06-14 05:20:00,70.7,67.6,29.87,NE,44,0.0,0.0,90,0.00,,---,0.00,VWS V14.00,2013-06-14 10:20:00,
2013-06-14 05:21:00,70.8,67.7,29.87,NE,44,0.0,0.0,90,0.00,,---,0.00,VWS V14.00,2013-06-14 10:21:00,
2013-06-14 05:25:00,70.7,67.6,29.87,NE,44,0.0,0.0,90,0.00,,---,0.00,VWS V14.00,2013-06-14 10:25:00,
2013-06-14 05:26:00,70.7,67.6,29.87,NE,44,0.0,0.0,90,0.00,,---,0.00,VWS V14.00,2013-06-14 10:26:00,
2013-06-14 05:30:00,70.7,67.6,29.87,NE,44,0.0,0.0,90,0.00,,---,0.00,VWS V14.00,2013-06-14 10:30:00,
2013-06-14 05:31:00,70.7,67.6,29.87,NE,44,0.0,0.0,90,0.00,,---,0.00,VWS V14.00,2013-06-14 10:31:00,
2013-06-14 05:35:00,70.6,67.5,29.87,NE,44,0.0,0.0,90,0.00,,---,0.00,VWS V14.00,2013-06-14 10:35:00,
2013-06-14 05:36:00,70.6,67.5,29.87,NE,44,0.0,0.0,90,0.00,,---,0.00,VWS V14.00,2013-06-14 10:36:00,
2013-06-14 05:40:00,70.6,67.5,29.87,NE,44,0.0,0.0,90,0.00,,---,0.00,VWS V14.00,2013-06-14 10:40:00,
2013-06-14 05:41:00,70.6,67.5,29.87,NE,44,0.0,0.0,90,0.00,,---,0.00,VWS V14.00,2013-06-14 10:41:00,
2013-06-14 05:45:00,70.6,67.5,29.87,NE,44,0.0,0.0,90,0.00,,---,0.00,VWS V14.00,2013-06-14 10:45:00,
2013-06-14 05:46:00,70.6,67.5,29.87,NE,44,0.0,0.0,90,0.00,,---,0.00,VWS V14.00,2013-06-14 10:46:00,
2013-06-14 05:50:00,70.6,67.8,29.87,NE,44,0.0,0.0,91,0.00,,---,0.00,VWS V14.00,2013-06-14 10:50:00,
2013-06-14 05:51:00,70.6,67.8,29.87,NE,44,0.0,0.0,91,0.00,,---,0.00,VWS V14.00,2013-06-14 10:51:00,
2013-06-14 05:55:00,70.7,67.9,29.87,NE,44,0.0,0.0,91,0.00,,---,0.00,VWS V14.00,2013-06-14 10:55:00,
2013-06-14 05:56:00,70.7,67.9,29.87,NE,44,0.0,0.0,91,0.00,,---,0.00,VWS V14.00,2013-06-14 10:56:00,
2013-06-14 06:00:00,71.0,68.2,29.87,NE,44,0.0,0.0,91,0.00,,---,0.00,VWS V14.00,2013-06-14 11:00:00,
2013-06-14 06:01:00,70.9,68.2,29.87,NE,44,0.0,0.0,91,0.00,,---,0.00,VWS V14.00,2013-06-14 11:01:00,
2013-06-14 06:05:00,71.3,68.5,29.87,NE,44,0.0,0.0,91,0.00,,---,0.00,VWS V14.00,2013-06-14 11:05:00,
2013-06-14 06:06:00,71.2,68.4,29.87,NE,44,0.0,0.0,91,0.00,,---,0.00,VWS V14.00,2013-06-14 11:06:00,
2013-06-14 06:10:00,71.5,68.7,29.88,NE,44,0.0,0.0,91,0.00,,---,0.00,VWS V14.00,2013-06-14 11:10:00,
2013-06-14 06:11:00,71.4,68.6,29.88,NE,44,0.0,0.0,91,0.00,,---,0.00,VWS V14.00,2013-06-14 11:11:00,
2013-06-14 06:15:00,71.7,68.9,29.88,NE,44,3.0,6.0,91,0.00,,---,0.00,VWS V14.00,2013-06-14 11:15:00,
2013-06-14 06:16:00,71.7,68.9,29.88,NE,44,4.0,5.0,91,0.00,,---,0.00,VWS V14.00,2013-06-14 11:16:00,
2013-06-14 06:20:00,72.0,69.2,29.88,NE,44,2.0,5.0,91,0.00,,---,0.00,VWS V14.00,2013-06-14 11:20:00,
2013-06-14 06:21:00,72.0,69.2,29.87,NE,44,4.0,5.0,91,0.00,,---,0.00,VWS V14.00,2013-06-14 11:21:00,
2013-06-14 06:25:00,72.3,69.5,29.87,NE,44,4.0,6.0,91,0.00,,---,0.00,VWS V14.00,2013-06-14 11:25:00,
2013-06-14 06:26:00,72.2,69.4,29.87,NE,44,4.0,6.0,91,0.00,,---,0.00,VWS V14.00,2013-06-14 11:26:00,
2013-06-14 06:30:00,72.5,69.7,29.88,NE,44,4.0,7.0,91,0.00,,---,0.00,VWS V14.00,2013-06-14 11:30:00,
2013-06-14 06:31:00,72.5,69.7,29.87,NE,44,3.0,7.0,91,0.00,,---,0.00,VWS V14.00,2013-06-14 11:31:00,
2013-06-14 06:35:00,72.8,70.0,29.88,NE,44,6.0,7.0,91,0.00,,---,0.00,VWS V14.00,2013-06-14 11:35:00,
2013-06-14 06:36:00,72.7,69.9,29.88,NE,44,5.0,7.0,91,0.00,,---,0.00,VWS V14.00,2013-06-14 11:36:00,
2013-06-14 06:40:00,73.0,70.2,29.88,NE,44,4.0,7.0,91,0.00,,---,0.00,VWS V14.00,2013-06-14 11:40:00,
2013-06-14 06:45:00,73.2,70.1,29.88,NE,44,4.0,6.0,90,0.00,,---,0.00,VWS V14.00,2013-06-14 11:45:00,
2013-06-14 06:50:00,73.5,70.4,29.88,NE,44,3.0,6.0,90,0.00,,---,0.00,VWS V14.00,2013-06-14 11:50:00,
2013-06-14 06:55:00,73.7,70.6,29.88,NE,44,3.0,5.0,90,0.00,,---,0.00,VWS V14.00,2013-06-14 11:55:00,
2013-06-14 07:00:00,74.0,70.9,29.88,NE,44,4.0,5.0,90,0.00,,---,0.00,VWS V14.00,2013-06-14 12:00:00,
2013-06-14 07:05:00,74.2,71.1,29.88,NE,44,4.0,4.0,90,0.00,,---,0.00,VWS V14.00,2013-06-14 12:05:00,
2013-06-14 07:10:00,74.4,71.3,29.88,NE,44,5.0,6.0,90,0.00,,---,0.00,VWS V14.00,2013-06-14 12:10:00,
2013-06-14 07:15:00,74.8,71.7,29.88,NE,44,3.0,6.0,90,0.00,,---,0.00,VWS V14.00,2013-06-14 12:15:00,
2013-06-14 07:20:00,75.2,71.7,29.89,NE,44,5.0,7.0,89,0.00,,---,0.00,VWS V14.00,2013-06-14 12:20:00,
2013-06-14 07:25:00,75.5,72.0,29.89,NE,44,3.0,7.0,89,0.00,,---,0.00,VWS V14.00,2013-06-14 12:25:00,
2013-06-14 07:30:00,75.9,72.1,29.89,NE,44,5.0,7.0,88,0.00,,---,0.00,VWS V14.00,2013-06-14 12:30:00,
2013-06-14 07:35:00,76.2,72.1,29.89,NE,44,6.0,7.0,87,0.00,,---,0.00,VWS V14.00,2013-06-14 12:35:00,
2013-06-14 07:40:00,76.5,72.3,29.89,NE,44,7.0,9.0,87,0.00,,---,0.00,VWS V14.00,2013-06-14 12:40:00,
2013-06-14 07:45:00,76.8,72.3,29.89,NE,46,9.0,9.0,86,0.00,,---,0.00,VWS V14.00,2013-06-14 12:45:00,
2013-06-14 07:50:00,77.1,72.6,29.89,East,96,5.0,11.0,86,0.00,,---,0.00,VWS V14.00,2013-06-14 12:50:00,
2013-06-14 07:55:00,77.4,72.5,29.90,East,98,1.0,10.0,85,0.00,,---,0.00,VWS V14.00,2013-06-14 12:55:00,
2013-06-14 08:00:00,77.7,72.8,29.90,East,98,5.0,8.0,85,0.00,,---,0.00,VWS V14.00,2013-06-14 13:00:00,
2013-06-14 08:05:00,78.0,72.8,29.90,ESE,113,7.0,10.0,84,0.00,,---,0.00,VWS V14.00,2013-06-14 13:05:00,
2013-06-14 08:10:00,78.2,73.0,29.91,ESE,116,6.0,11.0,84,0.00,,---,0.00,VWS V14.00,2013-06-14 13:10:00,
2013-06-14 08:15:00,78.5,72.9,29.90,ESE,121,6.0,12.0,83,0.00,,---,0.00,VWS V14.00,2013-06-14 13:15:00,
2013-06-14 08:20:00,78.7,73.1,29.90,SE,130,7.0,12.0,83,0.00,,---,0.00,VWS V14.00,2013-06-14 13:20:00,
2013-06-14 08:25:00,78.8,73.2,29.91,SE,130,8.0,12.0,83,0.00,,---,0.00,VWS V14.00,2013-06-14 13:25:00,
2013-06-14 08:30:00,79.1,73.5,29.90,SE,130,10.0,12.0,83,0.00,,---,0.00,VWS V14.00,2013-06-14 13:30:00,
2013-06-14 08:35:00,79.5,73.9,29.91,SE,124,6.0,10.0,83,0.00,,---,0.00,VWS V14.00,2013-06-14 13:35:00,
2013-06-14 08:40:00,79.9,73.9,29.91,ESE,120,7.0,10.0,82,0.00,,---,0.00,VWS V14.00,2013-06-14 13:40:00,
2013-06-14 08:45:00,80.3,73.9,29.91,SE,128,10.0,13.0,81,0.00,,---,0.00,VWS V14.00,2013-06-14 13:45:00,
2013-06-14 08:50:00,80.7,74.3,29.91,SE,131,5.0,10.0,81,0.00,,---,0.00,VWS V14.00,2013-06-14 13:50:00,
2013-06-14 08:55:00,81.1,74.7,29.91,SSE,148,8.0,11.0,81,0.00,,---,0.00,VWS V14.00,2013-06-14 13:55:00,
2013-06-14 09:00:00,81.5,74.7,29.91,SSE,147,3.0,10.0,80,0.00,,---,0.00,VWS V14.00,2013-06-14 14:00:00,
2013-06-14 09:05:00,81.8,74.7,29.91,SE,137,6.0,10.0,79,0.00,,---,0.00,VWS V14.00,2013-06-14 14:05:00,
2013-06-14 09:10:00,82.2,75.0,29.91,SE,137,5.0,7.0,79,0.00,,---,0.00,VWS V14.00,2013-06-14 14:10:00,
2013-06-14 09:15:00,82.5,74.9,29.91,SE,134,6.0,10.0,78,0.00,,---,0.00,VWS V14.00,2013-06-14 14:15:00,
2013-06-14 09:20:00,82.7,74.8,29.91,SE,135,5.0,10.0,77,0.00,,---,0.00,VWS V14.00,2013-06-14 14:20:00,
2013-06-14 09:25:00,83.0,75.1,29.91,SE,128,6.0,11.0,77,0.00,,---,0.00,VWS V14.00,2013-06-14 14:25:00,
2013-06-14 09:30:00,83.3,75.3,29.91,SE,138,4.0,9.0,77,0.00,,---,0.00,VWS V14.00,2013-06-14 14:30:00,
2013-06-14 09:35:00,83.7,75.7,29.91,SE,139,4.0,10.0,77,0.00,,---,0.00,VWS V14.00,2013-06-14 14:35:00,
2013-06-14 09:40:00,84.1,75.3,29.92,SE,140,7.0,11.0,75,0.00,,---,0.00,VWS V14.00,2013-06-14 14:40:00,
2013-06-14 09:45:00,84.3,75.5,29.92,SE,139,6.0,10.0,75,0.00,,---,0.00,VWS V14.00,2013-06-14 14:45:00,
2013-06-14 09:50:00,84.7,76.3,29.91,SSE,149,6.0,10.0,76,0.00,,---,0.00,VWS V14.00,2013-06-14 14:50:00,
2013-06-14 09:55:00,85.1,75.9,29.91,SSE,155,8.0,12.0,74,0.00,,---,0.00,VWS V14.00,2013-06-14 14:55:00,
2013-06-14 10:00:00,85.2,75.6,29.91,SE,145,5.0,11.0,73,0.00,,---,0.00,VWS V14.00,2013-06-14 15:00:00,
2013-06-14 10:05:00,85.3,75.7,29.91,SE,135,8.0,12.0,73,0.00,,---,0.00,VWS V14.00,2013-06-14 15:05:00,
2013-06-14 10:10:00,85.4,75.8,29.91,SE,135,6.0,10.0,73,0.00,,---,0.00,VWS V14.00,2013-06-14 15:10:00,
2013-06-14 10:15:00,85.7,76.1,29.91,SE,135,6.0,13.0,73,0.00,,---,0.00,VWS V14.00,2013-06-14 15:15:00,
2013-06-14 10:20:00,86.1,76.4,29.91,SE,135,5.0,9.0,73,0.00,,---,0.00,VWS V14.00,2013-06-14 15:20:00,
2013-06-14 10:25:00,86.4,76.3,29.91,SSE,158,6.0,12.0,72,0.00,,---,0.00,VWS V14.00,2013-06-14 15:25:00,
2013-06-14 10:30:00,86.8,76.3,29.91,SE,135,5.0,11.0,71,0.00,,---,0.00,VWS V14.00,2013-06-14 15:30:00,
2013-06-14 10:35:00,87.1,76.1,29.91,SE,135,6.0,9.0,70,0.00,,---,0.00,VWS V14.00,2013-06-14 15:35:00,
2013-06-14 10:40:00,87.3,76.3,29.91,SSE,158,6.0,11.0,70,0.00,,---,0.00,VWS V14.00,2013-06-14 15:40:00,
2013-06-14 10:45:00,87.4,76.0,29.91,SE,135,7.0,11.0,69,0.00,,---,0.00,VWS V14.00,2013-06-14 15:45:00,
2013-06-14 10:50:00,87.5,76.9,29.91,SE,135,6.0,10.0,71,0.00,,---,0.00,VWS V14.00,2013-06-14 15:50:00,
2013-06-14 10:55:00,87.8,77.2,29.91,SE,135,7.0,12.0,71,0.00,,---,0.00,VWS V14.00,2013-06-14 15:55:00,
2013-06-14 11:00:00,88.0,77.0,29.90,SE,135,5.0,9.0,70,0.00,,---,0.00,VWS V14.00,2013-06-14 16:00:00,
2013-06-14 11:05:00,88.2,76.8,29.90,SE,135,7.0,11.0,69,0.00,,---,0.00,VWS V14.00,2013-06-14 16:05:00,
2013-06-14 11:10:00,88.3,76.8,29.90,SE,135,8.0,12.0,69,0.00,,---,0.00,VWS V14.00,2013-06-14 16:10:00,
2013-06-14 11:15:00,88.4,77.4,29.90,SE,135,6.0,11.0,70,0.00,,---,0.00,VWS V14.00,2013-06-14 16:15:00,
2013-06-14 11:20:00,88.7,77.2,29.90,SE,135,6.0,12.0,69,0.00,,---,0.00,VWS V14.00,2013-06-14 16:20:00,
2013-06-14 11:25:00,89.1,77.6,29.90,SSE,158,6.0,12.0,69,0.00,,---,0.00,VWS V14.00,2013-06-14 16:25:00,
2013-06-14 11:30:00,89.2,76.8,29.90,SE,135,7.0,12.0,67,0.00,,---,0.00,VWS V14.00,2013-06-14 16:30:00,
2013-06-14 11:35:00,89.3,77.4,29.90,SE,135,6.0,12.0,68,0.00,,---,0.00,VWS V14.00,2013-06-14 16:35:00,
2013-06-14 11:40:00,89.5,77.6,29.90,SE,135,6.0,12.0,68,0.00,,---,0.00,VWS V14.00,2013-06-14 16:40:00,
2013-06-14 11:45:00,89.8,77.4,29.90,SE,135,5.0,10.0,67,0.00,,---,0.00,VWS V14.00,2013-06-14 16:45:00,
2013-06-14 11:50:00,90.0,77.6,29.90,ESE,112,6.0,12.0,67,0.00,,---,0.00,VWS V14.00,2013-06-14 16:50:00,
2013-06-14 11:55:00,90.1,78.1,29.90,SSE,158,7.0,12.0,68,0.00,,---,0.00,VWS V14.00,2013-06-14 16:55:00,
2013-06-14 12:00:00,90.4,77.5,29.90,SSE,158,6.0,11.0,66,0.00,,---,0.00,VWS V14.00,2013-06-14 17:00:00,
2013-06-14 12:05:00,90.6,77.7,29.89,SSE,158,6.0,11.0,66,0.00,,---,0.00,VWS V14.00,2013-06-14 17:05:00,
2013-06-14 12:10:00,90.7,77.3,29.89,SE,135,7.0,11.0,65,0.00,,---,0.00,VWS V14.00,2013-06-14 17:10:00,
2013-06-14 12:15:00,90.8,78.3,29.89,SSE,158,5.0,7.0,67,0.00,,---,0.00,VWS V14.00,2013-06-14 17:15:00,
2013-06-14 12:20:00,91.1,77.7,29.89,SSE,158,5.0,11.0,65,0.00,,---,0.00,VWS V14.00,2013-06-14 17:20:00,
2013-06-14 12:25:00,91.3,77.4,29.89,SE,135,7.0,12.0,64,0.00,,---,0.00,VWS V14.00,2013-06-14 17:25:00,
2013-06-14 12:30:00,91.5,77.1,29.89,South,180,7.0,12.0,63,0.00,,---,0.00,VWS V14.00,2013-06-14 17:30:00,
2013-06-14 12:35:00,91.5,78.1,29.89,SSE,158,7.0,13.0,65,0.00,,---,0.00,VWS V14.00,2013-06-14 17:35:00,
2013-06-14 12:40:00,91.8,77.9,29.89,SSE,158,6.0,11.0,64,0.00,,---,0.00,VWS V14.00,2013-06-14 17:40:00,
2013-06-14 12:45:00,92.0,76.6,29.89,SE,135,7.0,12.0,61,0.00,,---,0.00,VWS V14.00,2013-06-14 17:45:00,
2013-06-14 12:50:00,92.1,76.7,29.89,SE,135,7.0,12.0,61,0.00,,---,0.00,VWS V14.00,2013-06-14 17:50:00,
2013-06-14 12:55:00,92.2,75.3,29.88,SE,135,7.0,12.0,58,0.00,,---,0.00,VWS V14.00,2013-06-14 17:55:00,
2013-06-14 13:00:00,92.3,76.4,29.88,ESE,112,5.0,11.0,60,0.00,,---,0.00,VWS V14.00,2013-06-14 18:00:00,
2013-06-14 13:05:00,92.6,76.2,29.88,SSE,158,5.0,10.0,59,0.00,,---,0.00,VWS V14.00,2013-06-14 18:05:00,
2013-06-14 13:10:00,92.7,75.8,29.88,South,180,7.0,15.0,58,0.00,,---,0.00,VWS V14.00,2013-06-14 18:10:00,
2013-06-14 13:15:00,92.7,76.3,29.88,South,180,5.0,11.0,59,0.00,,---,0.00,VWS V14.00,2013-06-14 18:15:00,
2013-06-14 13:20:00,92.6,75.2,29.88,SSW,202,8.0,13.0,57,0.00,,---,0.00,VWS V14.00,2013-06-14 18:20:00,
2013-06-14 13:25:00,92.8,75.3,29.88,SSW,202,5.0,12.0,57,0.00,,---,0.00,VWS V14.00,2013-06-14 18:25:00,
2013-06-14 13:30:00,93.0,75.5,29.88,SSW,202,3.0,7.0,57,0.00,,---,0.00,VWS V14.00,2013-06-14 18:30:00,
2013-06-14 13:35:00,93.4,74.8,29.88,South,180,6.0,14.0,55,0.00,,---,0.00,VWS V14.00,2013-06-14 18:35:00,
2013-06-14 13:40:00,93.7,75.6,29.88,SSW,202,8.0,14.0,56,0.00,,---,0.00,VWS V14.00,2013-06-14 18:40:00,
2013-06-14 13:45:00,93.8,75.7,29.87,SSW,202,5.0,10.0,56,0.00,,---,0.00,VWS V14.00,2013-06-14 18:45:00,
2013-06-14 13:50:00,93.8,76.3,29.87,South,180,5.0,12.0,57,0.00,,---,0.00,VWS V14.00,2013-06-14 18:50:00,
2013-06-14 13:55:00,93.7,75.6,29.87,South,180,7.0,14.0,56,0.00,,---,0.00,VWS V14.00,2013-06-14 18:55:00,
2013-06-14 14:00:00,93.9,75.8,29.87,South,180,9.0,14.0,56,0.00,,---,0.00,VWS V14.00,2013-06-14 19:00:00,
2013-06-14 14:05:00,94.1,76.6,29.87,SSW,202,6.0,14.0,57,0.00,,---,0.00,VWS V14.00,2013-06-14 19:05:00,
2013-06-14 14:10:00,94.3,75.7,29.87,South,180,9.0,14.0,55,0.00,,---,0.00,VWS V14.00,2013-06-14 19:10:00,
2013-06-14 14:15:00,94.3,75.7,29.86,South,180,8.0,14.0,55,0.00,,---,0.00,VWS V14.00,2013-06-14 19:15:00,
2013-06-14 14:20:00,94.2,76.1,29.86,SSW,202,8.0,12.0,56,0.00,,---,0.00,VWS V14.00,2013-06-14 19:20:00,
2013-06-14 14:25:00,94.3,75.7,29.86,South,180,6.0,12.0,55,0.00,,---,0.00,VWS V14.00,2013-06-14 19:25:00,
2013-06-14 14:30:00,94.4,75.8,29.86,SW,225,7.0,12.0,55,0.00,,---,0.00,VWS V14.00,2013-06-14 19:30:00,
2013-06-14 14:35:00,94.4,75.8,29.86,SSW,202,9.0,14.0,55,0.00,,---,0.00,VWS V14.00,2013-06-14 19:35:00,
2013-06-14 14:40:00,94.4,75.2,29.86,South,180,6.0,12.0,54,0.00,,---,0.00,VWS V14.00,2013-06-14 19:40:00,
2013-06-14 14:45:00,94.4,74.1,29.86,SSW,202,10.0,14.0,52,0.00,,---,0.00,VWS V14.00,2013-06-14 19:45:00,
2013-06-14 14:50:00,94.1,73.8,29.86,South,180,8.0,13.0,52,0.00,,---,0.00,VWS V14.00,2013-06-14 19:50:00,
2013-06-14 14:55:00,93.9,75.3,29.86,SSW,202,8.0,13.0,55,0.00,,---,0.00,VWS V14.00,2013-06-14 19:55:00,
2013-06-14 15:00:00,93.9,75.3,29.85,SSW,202,8.0,13.0,55,0.00,,---,0.00,VWS V14.00,2013-06-14 20:00:00,
2013-06-14 15:05:00,93.9,74.2,29.85,South,180,7.0,12.0,53,0.00,,---,0.00,VWS V14.00,2013-06-14 20:05:00,
2013-06-14 15:10:00,94.0,74.8,29.85,SSW,202,6.0,10.0,54,0.00,,---,0.00,VWS V14.00,2013-06-14 20:10:00,
2013-06-14 15:15:00,94.2,75.6,29.85,South,180,6.0,11.0,55,0.00,,---,0.00,VWS V14.00,2013-06-14 20:15:00,
2013-06-14 15:20:00,94.4,75.2,29.85,SSE,158,7.0,13.0,54,0.00,,---,0.00,VWS V14.00,2013-06-14 20:20:00,
2013-06-14 15:25:00,94.5,73.6,29.85,South,180,7.0,11.0,51,0.00,,---,0.00,VWS V14.00,2013-06-14 20:25:00,
2013-06-14 15:30:00,94.5,73.6,29.85,SSE,158,7.0,13.0,51,0.00,,---,0.00,VWS V14.00,2013-06-14 20:30:00,
2013-06-14 15:35:00,94.4,74.6,29.85,SSW,202,8.0,13.0,53,0.00,,---,0.00,VWS V14.00,2013-06-14 20:35:00,
2013-06-14 15:40:00,94.5,73.6,29.85,SSW,202,8.0,14.0,51,0.00,,---,0.00,VWS V14.00,2013-06-14 20:40:00,
2013-06-14 15:45:00,94.5,73.6,29.85,South,180,8.0,13.0,51,0.00,,---,0.00,VWS V14.00,2013-06-14 20:45:00,
2013-06-14 15:50:00,94.5,73.0,29.84,South,180,7.0,12.0,50,0.00,,---,0.00,VWS V14.00,2013-06-14 20:50:00,
2013-06-14 15:55:00,94.6,74.3,29.84,South,180,7.0,12.0,52,0.00,,---,0.00,VWS V14.00,2013-06-14 20:55:00,
2013-06-14 16:00:00,94.7,73.2,29.84,South,180,7.0,11.0,50,0.00,,---,0.00,VWS V14.00,2013-06-14 21:00:00,
2013-06-14 16:05:00,94.8,74.4,29.84,South,180,7.0,11.0,52,0.00,,---,0.00,VWS V14.00,2013-06-14 21:05:00,
2013-06-14 16:10:00,94.8,73.9,29.84,SSE,158,7.0,10.0,51,0.00,,---,0.00,VWS V14.00,2013-06-14 21:10:00,
2013-06-14 16:15:00,94.7,72.6,29.83,South,180,7.0,14.0,49,0.00,,---,0.00,VWS V14.00,2013-06-14 21:15:00,
2013-06-14 16:20:00,94.7,74.3,29.83,SSW,202,6.0,10.0,52,0.00,,---,0.00,VWS V14.00,2013-06-14 21:20:00,
2013-06-14 16:25:00,94.7,73.2,29.84,SSW,202,7.0,11.0,50,0.00,,---,0.00,VWS V14.00,2013-06-14 21:25:00,
2013-06-14 16:30:00,94.6,73.7,29.83,SSW,202,5.0,12.0,51,0.00,,---,0.00,VWS V14.00,2013-06-14 21:30:00,
2013-06-14 16:35:00,94.7,73.8,29.84,SSW,202,6.0,10.0,51,0.00,,---,0.00,VWS V14.00,2013-06-14 21:35:00,
2013-06-14 16:40:00,94.7,74.9,29.84,SW,225,5.0,10.0,53,0.00,,---,0.00,VWS V14.00,2013-06-14 21:40:00,
2013-06-14 16:45:00,94.8,75.0,29.83,SSW,202,7.0,11.0,53,0.00,,---,0.00,VWS V14.00,2013-06-14 21:45:00,
2013-06-14 16:50:00,94.7,73.8,29.83,South,180,7.0,13.0,51,0.00,,---,0.00,VWS V14.00,2013-06-14 21:50:00,
2013-06-14 16:55:00,94.5,75.3,29.83,South,180,5.0,10.0,54,0.00,,---,0.00,VWS V14.00,2013-06-14 21:55:00,
2013-06-14 17:00:00,94.4,75.2,29.83,South,180,5.0,9.0,54,0.00,,---,0.00,VWS V14.00,2013-06-14 22:00:00,
2013-06-14 17:05:00,94.5,74.7,29.83,South,180,5.0,9.0,53,0.00,,---,0.00,VWS V14.00,2013-06-14 22:05:00,
2013-06-14 17:10:00,94.6,74.8,29.83,South,180,8.0,13.0,53,0.00,,---,0.00,VWS V14.00,2013-06-14 22:10:00,
2013-06-14 17:15:00,94.5,74.2,29.83,South,180,7.0,14.0,52,0.00,,---,0.00,VWS V14.00,2013-06-14 22:15:00,
2013-06-14 17:20:00,94.3,73.4,29.83,South,180,10.0,14.0,51,0.00,,---,0.00,VWS V14.00,2013-06-14 22:20:00,
2013-06-14 17:25:00,94.0,73.7,29.83,SSE,158,6.0,11.0,52,0.00,,---,0.00,VWS V14.00,2013-06-14 22:25:00,
2013-06-14 17:30:00,93.7,73.4,29.83,SSE,158,8.0,12.0,52,0.00,,---,0.00,VWS V14.00,2013-06-14 22:30:00,
2013-06-14 17:35:00,93.6,74.5,29.83,South,180,8.0,14.0,54,0.00,,---,0.00,VWS V14.00,2013-06-14 22:35:00,
2013-06-14 17:40:00,93.5,75.5,29.82,South,180,6.0,11.0,56,0.00,,---,0.00,VWS V14.00,2013-06-14 22:40:00,
2013-06-14 17:45:00,93.5,76.0,29.82,SSE,158,6.0,12.0,57,0.00,,---,0.00,VWS V14.00,2013-06-14 22:45:00,
2013-06-14 17:50:00,93.5,75.5,29.82,South,180,6.0,12.0,56,0.00,,---,0.00,VWS V14.00,2013-06-14 22:50:00,
2013-06-14 17:55:00,93.5,74.4,29.82,SSW,202,6.0,11.0,54,0.00,,---,0.00,VWS V14.00,2013-06-14 22:55:00,
2013-06-14 18:00:00,93.5,73.8,29.82,South,180,6.0,12.0,53,0.00,,---,0.00,VWS V14.00,2013-06-14 23:00:00,
2013-06-14 18:05:00,93.5,73.8,29.82,South,180,7.0,12.0,53,0.00,,---,0.00,VWS V14.00,2013-06-14 23:05:00,
2013-06-14 18:10:00,93.3,74.2,29.82,South,180,7.0,12.0,54,0.00,,---,0.00,VWS V14.00,2013-06-14 23:10:00,
2013-06-14 18:15:00,93.1,74.0,29.81,South,180,5.0,9.0,54,0.00,,---,0.00,VWS V14.00,2013-06-14 23:15:00,
2013-06-14 18:20:00,93.0,73.9,29.81,South,180,5.0,10.0,54,0.00,,---,0.00,VWS V14.00,2013-06-14 23:20:00,
2013-06-14 18:25:00,93.0,74.5,29.82,South,180,4.0,7.0,55,0.00,,---,0.00,VWS V14.00,2013-06-14 23:25:00,
2013-06-14 18:30:00,93.0,75.5,29.81,South,180,3.0,6.0,57,0.00,,---,0.00,VWS V14.00,2013-06-14 23:30:00,
2013-06-14 18:35:00,92.9,74.9,29.82,South,180,4.0,7.0,56,0.00,,---,0.00,VWS V14.00,2013-06-14 23:35:00,
2013-06-14 18:40:00,92.9,75.4,29.82,South,180,4.0,7.0,57,0.00,,---,0.00,VWS V14.00,2013-06-14 23:40:00,
2013-06-14 18:45:00,92.8,75.3,29.82,South,180,4.0,5.0,57,0.00,,---,0.00,VWS V14.00,2013-06-14 23:45:00,
2013-06-14 18:50:00,92.6,75.2,29.82,South,180,3.0,5.0,57,0.00,,---,0.00,VWS V14.00,2013-06-14 23:50:00,
2013-06-14 18:55:00,92.5,75.6,29.82,South,180,4.0,7.0,58,0.00,,---,0.00,VWS V14.00,2013-06-14 23:55:00,
2013-06-14 19:00:00,92.4,76.5,29.81,South,180,4.0,6.0,60,0.00,,---,0.00,VWS V14.00,2013-06-15 00:00:00,
2013-06-14 19:05:00,92.3,76.4,29.82,South,180,3.0,6.0,60,0.00,,---,0.00,VWS V14.00,2013-06-15 00:05:00,
2013-06-14 19:10:00,92.1,76.7,29.81,South,180,3.0,6.0,61,0.00,,---,0.00,VWS V14.00,2013-06-15 00:10:00,
2013-06-14 19:15:00,91.8,76.9,29.81,South,180,3.0,6.0,62,0.00,,---,0.00,VWS V14.00,2013-06-15 00:15:00,
2013-06-14 19:20:00,91.4,76.6,29.81,South,180,3.0,5.0,62,0.00,,---,0.00,VWS V14.00,2013-06-15 00:20:00,
2013-06-14 19:25:00,91.0,76.2,29.82,South,180,3.0,6.0,62,0.00,,---,0.00,VWS V14.00,2013-06-15 00:25:00,
2013-06-14 19:30:00,90.7,76.4,29.81,South,180,3.0,5.0,63,0.00,,---,0.00,VWS V14.00,2013-06-15 00:30:00,
2013-06-14 19:35:00,90.4,76.6,29.81,South,180,3.0,5.0,64,0.00,,---,0.00,VWS V14.00,2013-06-15 00:35:00,
2013-06-14 19:40:00,90.1,76.8,29.82,South,180,3.0,6.0,65,0.00,,---,0.00,VWS V14.00,2013-06-15 00:40:00,
2013-06-14 19:45:00,89.7,75.9,29.82,South,180,4.0,6.0,64,0.00,,---,0.00,VWS V14.00,2013-06-15 00:45:00,
2013-06-14 19:50:00,89.4,76.1,29.82,South,180,3.0,4.0,65,0.00,,---,0.00,VWS V14.00,2013-06-15 00:50:00,
2013-06-14 19:55:00,89.1,76.3,29.82,South,180,3.0,5.0,66,0.00,,---,0.00,VWS V14.00,2013-06-15 00:55:00,
2013-06-14 20:00:00,88.8,76.0,29.82,South,180,3.0,5.0,66,0.00,,---,0.00,VWS V14.00,2013-06-15 01:00:00,
2013-06-14 20:05:00,88.5,76.2,29.82,South,180,2.0,3.0,67,0.00,,---,0.00,VWS V14.00,2013-06-15 01:05:00,
2013-06-14 20:10:00,88.2,76.3,29.82,South,180,2.0,4.0,68,0.00,,---,0.00,VWS V14.00,2013-06-15 01:10:00,
2013-06-14 20:15:00,87.9,76.0,29.82,South,180,2.0,4.0,68,0.00,,---,0.00,VWS V14.00,2013-06-15 01:15:00,
2013-06-14 20:20:00,87.5,75.6,29.82,South,180,2.0,4.0,68,0.00,,---,0.00,VWS V14.00,2013-06-15 01:20:00,
2013-06-14 20:25:00,87.2,75.8,29.82,South,180,2.0,3.0,69,0.00,,---,0.00,VWS V14.00,2013-06-15 01:25:00,
2013-06-14 20:30:00,86.9,75.5,29.82,South,180,2.0,3.0,69,0.00,,---,0.00,VWS V14.00,2013-06-15 01:30:00,
2013-06-14 20:35:00,86.6,75.2,29.82,South,180,2.0,4.0,69,0.00,,---,0.00,VWS V14.00,2013-06-15 01:35:00,
2013-06-14 20:40:00,86.3,75.4,29.83,South,180,2.0,5.0,70,0.00,,---,0.00,VWS V14.00,2013-06-15 01:40:00,
2013-06-14 20:45:00,86.0,75.1,29.82,South,180,2.0,4.0,70,0.00,,---,0.00,VWS V14.00,2013-06-15 01:45:00,
2013-06-14 20:50:00,85.7,75.2,29.82,South,180,2.0,4.0,71,0.00,,---,0.00,VWS V14.00,2013-06-15 01:50:00,
2013-06-14 20:55:00,85.4,74.9,29.82,South,180,2.0,4.0,71,0.00,,---,0.00,VWS V14.00,2013-06-15 01:55:00,
2013-06-14 21:00:00,85.1,74.6,29.82,South,180,3.0,4.0,71,0.00,,---,0.00,VWS V14.00,2013-06-15 02:00:00,
2013-06-14 21:05:00,84.8,74.8,29.83,South,180,3.0,4.0,72,0.00,,---,0.00,VWS V14.00,2013-06-15 02:05:00,
2013-06-14 21:10:00,84.6,74.6,29.83,South,180,2.0,4.0,72,0.00,,---,0.00,VWS V14.00,2013-06-15 02:10:00,
2013-06-14 21:15:00,84.4,74.8,29.83,South,180,1.0,3.0,73,0.00,,---,0.00,VWS V14.00,2013-06-15 02:15:00,
2013-06-14 21:20:00,84.2,74.2,29.83,South,180,2.0,3.0,72,0.00,,---,0.00,VWS V14.00,2013-06-15 02:20:00,
2013-06-14 21:25:00,84.0,74.4,29.84,South,180,1.0,2.0,73,0.00,,---,0.00,VWS V14.00,2013-06-15 02:25:00,
2013-06-14 21:30:00,83.8,74.2,29.84,South,180,0.0,0.0,73,0.00,,---,0.00,VWS V14.00,2013-06-15 02:30:00,
2013-06-14 21:35:00,83.6,74.4,29.84,South,180,0.0,0.0,74,0.00,,---,0.00,VWS V14.00,2013-06-15 02:35:00,
2013-06-14 21:40:00,83.4,74.2,29.84,South,180,0.0,0.0,74,0.00,,---,0.00,VWS V14.00,2013-06-15 02:40:00,
2013-06-14 21:45:00,83.3,74.2,29.84,South,180,0.0,0.0,74,0.00,,---,0.00,VWS V14.00,2013-06-15 02:45:00,
2013-06-14 21:50:00,83.1,74.4,29.84,South,180,0.0,0.0,75,0.00,,---,0.00,VWS V14.00,2013-06-15 02:50:00,
2013-06-14 21:55:00,83.0,74.3,29.85,South,180,0.0,1.0,75,0.00,,---,0.00,VWS V14.00,2013-06-15 02:55:00,
2013-06-14 22:00:00,82.8,74.1,29.85,South,180,0.0,0.0,75,0.00,,---,0.00,VWS V14.00,2013-06-15 03:00:00,
2013-06-14 22:05:00,82.6,73.9,29.85,South,180,0.0,0.0,75,0.00,,---,0.00,VWS V14.00,2013-06-15 03:05:00,
2013-06-14 22:10:00,82.4,74.1,29.85,South,180,0.0,0.0,76,0.00,,---,0.00,VWS V14.00,2013-06-15 03:10:00,
2013-06-14 22:15:00,82.3,74.0,29.86,South,180,0.0,0.0,76,0.00,,---,0.00,VWS V14.00,2013-06-15 03:15:00,
2013-06-14 22:20:00,82.2,73.9,29.86,South,180,0.0,0.0,76,0.00,,---,0.00,VWS V14.00,2013-06-15 03:20:00,
2013-06-14 22:25:00,82.1,73.8,29.86,South,180,0.0,0.0,76,0.00,,---,0.00,VWS V14.00,2013-06-15 03:25:00,
2013-06-14 22:30:00,82.0,73.7,29.86,South,180,0.0,0.0,76,0.00,,---,0.00,VWS V14.00,2013-06-15 03:30:00,
2013-06-14 22:35:00,82.0,73.7,29.86,South,180,0.0,0.0,76,0.00,,---,0.00,VWS V14.00,2013-06-15 03:35:00,
2013-06-14 22:40:00,81.9,73.6,29.86,South,180,0.0,0.0,76,0.00,,---,0.00,VWS V14.00,2013-06-15 03:40:00,
2013-06-14 22:45:00,81.9,74.0,29.86,South,180,0.0,0.0,77,0.00,,---,0.00,VWS V14.00,2013-06-15 03:45:00,
2013-06-14 22:50:00,81.8,73.9,29.87,South,180,0.0,0.0,77,0.00,,---,0.00,VWS V14.00,2013-06-15 03:50:00,
2013-06-14 22:55:00,81.7,73.8,29.87,South,180,0.0,0.0,77,0.00,,---,0.00,VWS V14.00,2013-06-15 03:55:00,
2013-06-14 23:00:00,81.6,73.7,29.87,South,180,0.0,0.0,77,0.00,,---,0.00,VWS V14.00,2013-06-15 04:00:00,
2013-06-14 23:05:00,81.4,73.5,29.87,South,180,0.0,0.0,77,0.00,,---,0.00,VWS V14.00,2013-06-15 04:05:00,
2013-06-14 23:10:00,81.3,73.8,29.87,South,180,0.0,0.0,78,0.00,,---,0.00,VWS V14.00,2013-06-15 04:10:00,
2013-06-14 23:15:00,81.2,73.7,29.87,South,180,0.0,0.0,78,0.00,,---,0.00,VWS V14.00,2013-06-15 04:15:00,
2013-06-14 23:20:00,81.1,73.6,29.87,South,180,0.0,0.0,78,0.00,,---,0.00,VWS V14.00,2013-06-15 04:20:00,
2013-06-14 23:25:00,81.1,73.6,29.87,South,180,0.0,0.0,78,0.00,,---,0.00,VWS V14.00,2013-06-15 04:25:00,
2013-06-14 23:30:00,80.9,73.4,29.87,South,180,0.0,0.0,78,0.00,,---,0.00,VWS V14.00,2013-06-15 04:30:00,
2013-06-14 23:35:00,80.8,73.3,29.87,South,180,0.0,0.0,78,0.00,,---,0.00,VWS V14.00,2013-06-15 04:35:00,
2013-06-14 23:40:00,80.7,73.6,29.87,South,180,0.0,0.0,79,0.00,,---,0.00,VWS V14.00,2013-06-15 04:40:00,
2013-06-14 23:45:00,80.6,73.5,29.88,South,180,0.0,0.0,79,0.00,,---,0.00,VWS V14.00,2013-06-15 04:45:00,
2013-06-14 23:50:00,80.5,73.4,29.87,South,180,0.0,0.0,79,0.00,,---,0.00,VWS V14.00,2013-06-15 04:50:00,
2013-06-14 23:55:00,80.3,73.6,29.87,South,180,0.0,0.0,80,0.00,,---,0.00,VWS V14.00,2013-06-15 04:55:00,